Pagina principale
METAR-TAF:

METAR-TAF

Aeroporti :

Soldotna, Alaska, Stati Uniti

latitudine: 60-29N, longitudine: 151-02W, altezza: 33 m

Osservazione

Il bollettino è stato emesso 56 minuti fa, alle 13:56 UTC
Vento 3 kt da est
Temperature 1°C
Umidità 100%
Pressione 1011 hPa
Visibilità: 16.1 km
Nubi sparse ad un'altezza di 7500 ft

METAR: PASX 221356Z AUTO 09003KT 10SM SCT075 01/01 A2984 RMK AO2 SLP111 T00110011 FZRANO

Ora: 06:52 (14:52 UTC)


TAF: mancante

Osservazioni e previsioni meteorologiche di più di 4000 aeroporti (messaggi METAR e TAF).

Le stazioni disponibili sono rappresentate dai dischi gialli e rossi sulla carta.

Puntare il mouse per vedere il nome della stazione.

Clicca sopra per visualizzare le osservazioni e previsioni meteorologiche.

Per cambiare la mappa : fare clic sui pulsanti verdi con una croce nera per ingrandire, il pulsante verde con un trattino per diminuire, o sulla freccia verde per le mappe adiacenti.


METAR-TAF: